createdAt,value
2023-04-04T00:00:35.191Z,51.77
2023-04-04T00:03:01.734Z,51.72
2023-04-04T00:05:29.058Z,51.93
2023-04-04T00:07:55.721Z,52.54
2023-04-04T00:10:22.239Z,52.89
2023-04-04T00:12:48.787Z,52.59
2023-04-04T00:15:15.494Z,52.69
2023-04-04T00:17:42.025Z,52.59
2023-04-04T00:20:09.231Z,52.34
2023-04-04T00:22:35.794Z,52.39
2023-04-04T00:25:02.271Z,51.98
2023-04-04T00:27:28.913Z,52.37
2023-04-04T00:29:55.778Z,52.18
2023-04-04T00:32:22.455Z,52.24
2023-04-04T00:34:53.756Z,53.10
2023-04-04T00:37:21.322Z,53.55
2023-04-04T00:39:48.241Z,54.04
2023-04-04T00:42:14.829Z,54.51
2023-04-04T00:44:41.480Z,54.26
2023-04-04T00:47:08.064Z,55.05
2023-04-04T00:49:34.658Z,55.24
2023-04-04T00:52:01.160Z,55.27
2023-04-04T00:54:27.719Z,54.72
2023-04-04T00:56:55.360Z,54.84
2023-04-04T00:59:26.030Z,55.22
2023-04-04T01:01:52.748Z,55.15
2023-04-04T01:04:19.443Z,55.02
2023-04-04T01:06:46.249Z,54.97
2023-04-04T01:09:13.202Z,54.88
2023-04-04T01:11:39.864Z,54.51
2023-04-04T01:14:06.617Z,54.67
2023-04-04T01:16:33.236Z,54.93
2023-04-04T01:19:02.933Z,55.57
2023-04-04T01:21:32.917Z,55.67
2023-04-04T01:24:11.222Z,55.96
2023-04-04T01:26:37.765Z,55.95
2023-04-04T01:29:04.464Z,56.14
2023-04-04T01:31:41.072Z,56.56
2023-04-04T01:34:20.381Z,57.56
2023-04-04T01:37:01.752Z,56.25
2023-04-04T01:39:36.922Z,56.00
2023-04-04T01:42:03.983Z,56.01
2023-04-04T01:44:30.726Z,56.28
2023-04-04T01:46:57.262Z,55.88
2023-04-04T01:49:29.671Z,56.29
2023-04-04T01:51:58.795Z,56.09
2023-04-04T01:54:28.288Z,56.29
2023-04-04T01:56:58.133Z,56.41
2023-04-04T01:59:27.281Z,56.62
2023-04-04T02:01:53.858Z,56.87
2023-04-04T02:04:20.423Z,56.34
2023-04-04T02:06:47.237Z,56.33
2023-04-04T02:09:21.208Z,55.96
2023-04-04T02:11:48.420Z,56.48
2023-04-04T02:14:14.978Z,56.79
2023-04-04T02:16:41.645Z,57.12
2023-04-04T02:19:08.961Z,56.67
2023-04-04T02:21:35.484Z,56.65
2023-04-04T02:24:01.983Z,56.44
2023-04-04T02:26:28.480Z,56.46
2023-04-04T02:28:54.959Z,56.44
2023-04-04T02:31:34.731Z,56.47
2023-04-04T02:34:01.757Z,55.92
2023-04-04T02:36:28.854Z,55.89
2023-04-04T02:39:05.614Z,55.83
2023-04-04T02:41:32.282Z,56.18
2023-04-04T02:44:04.037Z,56.35
2023-04-04T02:46:30.575Z,56.45
2023-04-04T02:48:57.405Z,56.73
2023-04-04T02:51:24.002Z,56.53
2023-04-04T02:53:50.508Z,56.75
2023-04-04T02:56:17.225Z,56.50
2023-04-04T02:58:43.668Z,56.12
2023-04-04T03:01:10.364Z,55.85
2023-04-04T03:03:37.242Z,55.89
2023-04-04T03:06:03.841Z,55.84
2023-04-04T03:08:30.464Z,56.33
2023-04-04T03:10:56.932Z,56.25
2023-04-04T03:13:23.496Z,56.15
2023-04-04T03:15:50.411Z,56.65
2023-04-04T03:18:17.431Z,57.45
2023-04-04T03:20:43.895Z,56.96
2023-04-04T03:23:10.399Z,57.26
2023-04-04T03:25:53.044Z,57.73
2023-04-04T03:28:19.551Z,58.25
2023-04-04T03:30:46.531Z,56.95
2023-04-04T03:33:13.040Z,57.24
2023-04-04T03:35:40.625Z,56.95
2023-04-04T03:38:08.805Z,57.05
2023-04-04T03:40:35.774Z,57.36
2023-04-04T03:43:02.533Z,56.90
2023-04-04T03:45:30.180Z,57.56
2023-04-04T03:47:58.929Z,57.98
2023-04-04T03:50:25.491Z,58.48
2023-04-04T03:52:52.011Z,58.65
2023-04-04T03:55:20.924Z,59.00
2023-04-04T03:57:47.756Z,58.94
2023-04-04T04:00:14.631Z,58.91
2023-04-04T04:02:41.351Z,58.87
2023-04-04T04:05:09.066Z,59.12
2023-04-04T04:07:38.128Z,59.00
2023-04-04T04:10:05.430Z,58.26
2023-04-04T04:12:34.996Z,58.50
2023-04-04T04:15:04.199Z,58.14
2023-04-04T04:17:30.706Z,58.80
2023-04-04T04:20:06.334Z,59.20
2023-04-04T04:22:32.804Z,59.06
2023-04-04T04:24:59.308Z,58.57
2023-04-04T04:27:25.921Z,59.03
2023-04-04T04:29:52.637Z,58.67
2023-04-04T04:32:19.515Z,58.45
2023-04-04T04:34:46.011Z,57.88
2023-04-04T04:37:12.762Z,58.01
2023-04-04T04:39:39.415Z,58.03
2023-04-04T04:42:06.781Z,57.93
2023-04-04T04:44:33.394Z,58.22
2023-04-04T04:46:59.904Z,57.81
2023-04-04T04:49:26.589Z,57.39
2023-04-04T04:51:53.837Z,57.43
2023-04-04T04:54:20.275Z,56.86
2023-04-04T04:56:46.781Z,57.20
2023-04-04T04:59:14.999Z,56.96
2023-04-04T05:01:41.515Z,57.59
2023-04-04T05:04:08.014Z,57.48
2023-04-04T05:06:34.529Z,57.33
2023-04-04T05:09:01.454Z,57.18
2023-04-04T05:11:27.891Z,57.37
2023-04-04T05:13:54.388Z,57.37
2023-04-04T05:16:20.946Z,57.95
2023-04-04T05:18:57.469Z,57.46
2023-04-04T05:21:28.069Z,57.83
2023-04-04T05:23:54.987Z,58.49
2023-04-04T05:26:21.570Z,58.34
2023-04-04T05:28:48.085Z,57.96
2023-04-04T05:31:14.557Z,58.30
2023-04-04T05:33:41.105Z,58.10
2023-04-04T05:36:07.840Z,58.40
2023-04-04T05:38:34.389Z,58.40
2023-04-04T05:41:01.016Z,58.28
2023-04-04T05:43:27.687Z,57.97
2023-04-04T05:45:56.972Z,58.19
2023-04-04T05:48:23.460Z,57.79
2023-04-04T05:50:49.914Z,57.41
2023-04-04T05:53:17.010Z,57.46
2023-04-04T05:55:43.518Z,57.49
2023-04-04T05:58:12.624Z,58.05
2023-04-04T06:00:40.232Z,58.38
2023-04-04T06:03:21.612Z,58.24
2023-04-04T06:06:07.865Z,58.46
2023-04-04T06:08:50.289Z,58.37
2023-04-04T06:11:19.928Z,57.97
2023-04-04T06:13:46.379Z,58.00
2023-04-04T06:16:12.941Z,57.69
2023-04-04T06:18:39.506Z,57.90
2023-04-04T06:21:06.349Z,57.59
2023-04-04T06:23:32.822Z,57.42
2023-04-04T06:25:59.402Z,57.17
2023-04-04T06:28:25.903Z,57.44
2023-04-04T06:30:52.458Z,58.45
2023-04-04T06:33:18.990Z,58.81
2023-04-04T06:35:45.760Z,58.76
2023-04-04T06:38:13.061Z,58.32
2023-04-04T06:40:39.866Z,58.33
2023-04-04T06:43:06.547Z,58.69
2023-04-04T06:45:36.310Z,58.13
2023-04-04T06:48:03.352Z,57.89
2023-04-04T06:50:34.224Z,57.76
2023-04-04T06:53:02.093Z,57.17
2023-04-04T06:55:29.204Z,56.45
2023-04-04T06:57:57.240Z,56.83
2023-04-04T07:00:24.120Z,56.26
2023-04-04T07:02:56.651Z,56.11
2023-04-04T07:05:23.223Z,55.49
2023-04-04T07:07:54.707Z,55.17
2023-04-04T07:10:22.969Z,55.00
2023-04-04T07:12:49.688Z,54.74
2023-04-04T07:15:16.386Z,54.24
2023-04-04T07:17:42.952Z,53.89
2023-04-04T07:20:10.769Z,53.68
2023-04-04T07:22:39.536Z,52.93
2023-04-04T07:25:07.626Z,53.05
2023-04-04T07:27:34.490Z,53.01
2023-04-04T07:30:00.971Z,52.54
2023-04-04T07:32:33.145Z,52.18
2023-04-04T07:35:02.021Z,51.77
2023-04-04T07:37:31.401Z,51.39
2023-04-04T07:39:58.206Z,51.42
2023-04-04T07:42:25.359Z,51.53
2023-04-04T07:44:52.528Z,51.30
2023-04-04T07:47:24.829Z,51.25
2023-04-04T07:49:51.462Z,51.09
2023-04-04T07:52:17.982Z,50.50
2023-04-04T07:54:44.565Z,50.62
2023-04-04T07:57:11.351Z,50.17
2023-04-04T07:59:37.994Z,50.17
2023-04-04T08:02:04.559Z,50.53
2023-04-04T08:04:31.322Z,49.81
2023-04-04T08:06:57.901Z,49.54
2023-04-04T08:09:25.192Z,49.60
2023-04-04T08:11:51.684Z,48.92
2023-04-04T08:14:18.197Z,48.06
2023-04-04T08:16:44.635Z,47.79
2023-04-04T08:19:17.382Z,47.65
2023-04-04T08:21:44.632Z,47.63
2023-04-04T08:24:14.370Z,48.06
2023-04-04T08:26:42.246Z,47.74
2023-04-04T08:29:08.905Z,47.08
2023-04-04T08:31:35.516Z,47.00
2023-04-04T08:34:07.660Z,46.94
2023-04-04T08:36:38.309Z,46.92
2023-04-04T08:39:04.817Z,46.80
2023-04-04T08:41:34.887Z,46.25
2023-04-04T08:44:04.506Z,46.80
2023-04-04T08:46:32.378Z,47.26
2023-04-04T08:49:00.610Z,46.65
2023-04-04T08:51:31.686Z,46.14
2023-04-04T08:54:00.352Z,46.10
2023-04-04T08:56:28.675Z,46.12
2023-04-04T08:58:59.728Z,45.14
2023-04-04T09:01:29.670Z,45.53
2023-04-04T09:04:01.835Z,45.57
2023-04-04T09:06:28.927Z,45.08
2023-04-04T09:08:59.314Z,45.25
2023-04-04T09:11:27.781Z,45.58
2023-04-04T09:13:57.316Z,45.76
2023-04-04T09:16:24.626Z,45.16
2023-04-04T09:18:52.790Z,45.24
2023-04-04T09:21:19.613Z,44.81
2023-04-04T09:23:46.135Z,44.05
2023-04-04T09:26:13.243Z,43.99
2023-04-04T09:28:39.787Z,43.81
2023-04-04T09:31:09.799Z,43.37
2023-04-04T09:33:38.357Z,42.96
2023-04-04T09:36:12.996Z,42.74
2023-04-04T09:38:43.894Z,43.03
2023-04-04T09:41:14.633Z,42.73
2023-04-04T09:43:41.408Z,42.79
2023-04-04T09:46:08.164Z,42.75
2023-04-04T09:48:36.773Z,42.30
2023-04-04T09:51:11.978Z,42.17
2023-04-04T09:53:42.189Z,42.70
2023-04-04T09:56:08.898Z,42.22
2023-04-04T09:58:41.968Z,42.19
2023-04-04T10:01:13.827Z,42.15
2023-04-04T10:03:40.524Z,41.25
2023-04-04T10:06:10.399Z,41.11
2023-04-04T10:08:41.199Z,41.17
2023-04-04T10:11:11.787Z,41.54
2023-04-04T10:13:46.663Z,41.56
2023-04-04T10:16:16.879Z,41.66
2023-04-04T10:18:43.731Z,41.32
2023-04-04T10:23:42.282Z,40.77
2023-04-04T10:26:08.827Z,40.68
2023-04-04T10:28:35.606Z,40.22
2023-04-04T10:31:23.446Z,39.58
2023-04-04T10:34:14.543Z,38.95
2023-04-04T10:36:58.251Z,37.57
2023-04-04T10:39:38.056Z,39.56
2023-04-04T10:42:07.694Z,39.86
2023-04-04T10:44:40.039Z,40.23
2023-04-04T10:47:14.559Z,39.94
2023-04-04T10:49:45.008Z,40.31
2023-04-04T10:52:17.216Z,40.29
2023-04-04T10:54:44.799Z,39.84
2023-04-04T10:57:14.123Z,39.02
2023-04-04T11:00:13.324Z,38.42
2023-04-04T11:02:51.760Z,39.96
2023-04-04T11:05:51.069Z,38.94
2023-04-04T11:08:27.802Z,37.74
2023-04-04T11:10:56.149Z,39.10
2023-04-04T11:13:29.129Z,38.99
2023-04-04T11:16:15.643Z,38.31
2023-04-04T11:18:42.243Z,38.70
2023-04-04T11:21:14.825Z,38.47
2023-04-04T11:23:59.791Z,37.71
2023-04-04T11:26:29.082Z,37.94
2023-04-04T11:29:03.841Z,38.10
2023-04-04T11:31:43.827Z,38.41
2023-04-04T11:34:12.594Z,38.10
2023-04-04T11:36:39.444Z,38.75
2023-04-04T11:39:15.334Z,38.61
2023-04-04T11:41:47.812Z,37.11
2023-04-04T11:44:18.693Z,37.52
2023-04-04T11:46:50.996Z,37.27
2023-04-04T11:49:18.527Z,37.46
2023-04-04T11:51:46.610Z,37.50
2023-04-04T11:54:17.376Z,37.40
2023-04-04T11:56:45.326Z,37.48
2023-04-04T11:59:22.504Z,36.83
2023-04-04T12:01:52.363Z,37.06
2023-04-04T12:04:20.502Z,36.74
2023-04-04T12:06:51.483Z,36.97
2023-04-04T12:09:20.312Z,36.96
2023-04-04T12:11:48.897Z,36.42
2023-04-04T12:14:20.210Z,36.64
2023-04-04T12:16:54.333Z,36.04
2023-04-04T12:19:23.956Z,36.43
2023-04-04T12:21:52.374Z,34.68
2023-04-04T12:24:20.231Z,35.36
2023-04-04T12:26:53.132Z,35.44
2023-04-04T12:29:22.739Z,35.42
2023-04-04T12:31:51.898Z,35.22
2023-04-04T12:34:24.560Z,34.01
2023-04-04T12:36:57.719Z,33.00
2023-04-04T12:39:29.403Z,34.80
2023-04-04T12:42:02.547Z,34.12
2023-04-04T12:44:35.873Z,34.79
2023-04-04T12:47:06.355Z,34.43
2023-04-04T12:49:41.466Z,34.05
2023-04-04T12:52:21.746Z,33.72
2023-04-04T12:55:04.797Z,34.83
2023-04-04T12:57:36.669Z,35.06
2023-04-04T13:00:06.357Z,35.04
2023-04-04T13:02:36.363Z,34.82
2023-04-04T13:05:03.989Z,34.38
2023-04-04T13:07:39.095Z,34.71
2023-04-04T13:10:06.728Z,34.75
2023-04-04T13:13:00.202Z,34.98
2023-04-04T13:15:52.499Z,33.00
2023-04-04T13:18:25.472Z,33.92
2023-04-04T13:20:55.360Z,34.16
2023-04-04T13:23:23.037Z,35.37
2023-04-04T13:25:49.850Z,34.76
2023-04-04T13:28:16.341Z,34.63
2023-04-04T13:30:49.589Z,34.28
2023-04-04T13:33:17.402Z,33.79
2023-04-04T13:35:45.884Z,34.20
2023-04-04T13:38:12.814Z,34.22
2023-04-04T13:40:39.528Z,33.75
2023-04-04T13:43:06.145Z,34.07
2023-04-04T13:45:34.299Z,34.21
2023-04-04T13:48:02.157Z,34.03
2023-04-04T13:50:28.740Z,34.07
2023-04-04T13:52:56.531Z,34.01
2023-04-04T13:55:23.244Z,34.13
2023-04-04T13:57:49.757Z,34.22
2023-04-04T14:00:17.591Z,34.41
2023-04-04T14:02:44.172Z,34.14
2023-04-04T14:05:10.715Z,33.77
2023-04-04T14:07:38.287Z,33.74
2023-04-04T14:10:05.514Z,34.05
2023-04-04T14:12:32.031Z,34.08
2023-04-04T14:14:58.479Z,33.45
2023-04-04T14:17:24.963Z,33.29
2023-04-04T14:19:51.431Z,33.07
2023-04-04T14:22:17.897Z,33.45
2023-04-04T14:24:44.385Z,33.62
2023-04-04T14:27:11.055Z,33.60
2023-04-04T14:29:37.610Z,33.27
2023-04-04T14:32:04.149Z,33.24
2023-04-04T14:34:30.652Z,33.37
2023-04-04T14:36:57.253Z,34.04
2023-04-04T14:39:23.876Z,33.36
2023-04-04T14:41:50.542Z,33.18
2023-04-04T14:44:17.047Z,33.35
2023-04-04T14:46:44.628Z,33.04
2023-04-04T14:49:11.144Z,33.03
2023-04-04T14:51:37.684Z,33.43
2023-04-04T14:54:04.423Z,33.47
2023-04-04T14:56:31.455Z,32.82
2023-04-04T14:59:00.201Z,33.07
2023-04-04T15:01:27.121Z,32.73
2023-04-04T15:03:55.494Z,32.46
2023-04-04T15:06:22.224Z,32.58
2023-04-04T15:08:49.217Z,32.53
2023-04-04T15:11:16.647Z,32.31
2023-04-04T15:13:44.052Z,32.30
2023-04-04T15:16:10.659Z,32.12
2023-04-04T15:18:39.888Z,31.87
2023-04-04T15:21:06.361Z,32.43
2023-04-04T15:23:33.055Z,32.38
2023-04-04T15:25:59.592Z,32.49
2023-04-04T15:28:26.309Z,32.57
2023-04-04T15:30:52.870Z,32.09
2023-04-04T15:33:19.323Z,32.29
2023-04-04T15:35:46.224Z,32.29
2023-04-04T15:38:12.682Z,32.58
2023-04-04T15:40:39.659Z,31.94
2023-04-04T15:43:06.315Z,31.41
2023-04-04T15:45:32.869Z,31.81
2023-04-04T15:47:59.385Z,32.55
2023-04-04T15:50:26.080Z,32.51
2023-04-04T15:52:52.638Z,32.16
2023-04-04T15:55:20.855Z,31.77
2023-04-04T15:57:48.577Z,31.42
2023-04-04T16:00:16.713Z,31.61
2023-04-04T16:02:43.683Z,31.87
2023-04-04T16:05:10.402Z,32.01
2023-04-04T16:07:36.922Z,32.43
2023-04-04T16:10:04.223Z,32.16
2023-04-04T16:12:31.117Z,31.84
2023-04-04T16:14:57.725Z,31.64
2023-04-04T16:17:26.101Z,31.52
2023-04-04T16:19:52.769Z,31.41
2023-04-04T16:22:19.238Z,30.82
2023-04-04T16:24:45.728Z,30.84
2023-04-04T16:27:12.228Z,30.57
2023-04-04T16:29:38.729Z,30.11
2023-04-04T16:32:08.595Z,30.23
2023-04-04T16:34:37.412Z,30.65
2023-04-04T16:37:04.166Z,30.74
2023-04-04T16:39:30.727Z,30.40
2023-04-04T16:41:57.782Z,30.47
2023-04-04T16:44:24.332Z,30.46
2023-04-04T16:46:50.832Z,30.46
2023-04-04T16:49:17.404Z,30.71
2023-04-04T16:51:43.976Z,31.19
2023-04-04T16:54:11.166Z,30.65
2023-04-04T16:56:37.677Z,30.36
2023-04-04T16:59:04.287Z,30.64
2023-04-04T17:01:31.741Z,30.11
2023-04-04T17:03:58.995Z,30.72
2023-04-04T17:06:25.731Z,30.70
2023-04-04T17:08:52.205Z,31.02
2023-04-04T17:11:18.780Z,31.09
2023-04-04T17:13:45.923Z,31.07
2023-04-04T17:16:12.794Z,31.38
2023-04-04T17:18:39.447Z,31.54
2023-04-04T17:21:06.393Z,31.16
2023-04-04T17:23:33.620Z,31.61
2023-04-04T17:26:00.115Z,31.37
2023-04-04T17:28:26.629Z,31.46
2023-04-04T17:30:53.118Z,31.67
2023-04-04T17:33:21.130Z,31.51
2023-04-04T17:35:48.239Z,31.97
2023-04-04T17:38:14.864Z,32.16
2023-04-04T17:40:41.778Z,31.98
2023-04-04T17:43:08.757Z,32.39
2023-04-04T17:45:35.316Z,32.72
2023-04-04T17:48:01.879Z,32.84
2023-04-04T17:50:28.488Z,33.33
2023-04-04T17:52:54.959Z,33.49
2023-04-04T17:55:22.944Z,33.86
2023-04-04T17:57:49.560Z,34.25
2023-04-04T18:00:16.544Z,35.03
2023-04-04T18:02:43.170Z,34.35
2023-04-04T18:05:10.696Z,34.48
2023-04-04T18:07:37.207Z,34.82
2023-04-04T18:10:04.094Z,35.26
2023-04-04T18:12:34.572Z,36.22
2023-04-04T18:15:02.713Z,36.32
2023-04-04T18:17:29.578Z,36.52
2023-04-04T18:19:57.348Z,36.67
2023-04-04T18:22:23.824Z,36.65
2023-04-04T18:24:50.340Z,36.50
2023-04-04T18:27:16.873Z,36.07
2023-04-04T18:29:43.437Z,36.38
2023-04-04T18:32:10.000Z,36.44
2023-04-04T18:34:36.472Z,36.17
2023-04-04T18:37:03.100Z,36.85
2023-04-04T18:39:29.680Z,37.32
2023-04-04T18:41:56.600Z,37.20
2023-04-04T18:44:23.254Z,37.08
2023-04-04T18:46:49.992Z,37.30
2023-04-04T18:49:16.525Z,37.24
2023-04-04T18:51:43.049Z,37.65
2023-04-04T18:54:09.582Z,37.53
2023-04-04T18:56:37.847Z,37.88
2023-04-04T18:59:05.555Z,38.39
2023-04-04T19:01:32.850Z,38.41
2023-04-04T19:04:03.398Z,38.10
2023-04-04T19:06:32.835Z,38.53
2023-04-04T19:09:04.181Z,38.82
2023-04-04T19:11:33.589Z,39.15
2023-04-04T19:14:00.213Z,39.21
2023-04-04T19:16:26.755Z,39.18
2023-04-04T19:18:53.281Z,39.42
2023-04-04T19:21:19.838Z,39.27
2023-04-04T19:23:47.256Z,38.96
2023-04-04T19:26:15.740Z,39.74
2023-04-04T19:28:46.112Z,39.64
2023-04-04T19:31:22.035Z,40.69
2023-04-04T19:33:51.237Z,40.37
2023-04-04T19:36:17.739Z,40.57
2023-04-04T19:38:44.665Z,40.80
2023-04-04T19:41:32.498Z,41.63
2023-04-04T19:43:59.230Z,41.01
2023-04-04T19:46:29.474Z,41.19
2023-04-04T19:48:58.138Z,41.07
2023-04-04T19:51:24.496Z,41.20
2023-04-04T19:53:59.770Z,41.23
2023-04-04T19:56:28.417Z,40.94
2023-04-04T19:58:59.945Z,40.94
2023-04-04T20:01:35.382Z,41.65
2023-04-04T20:04:11.136Z,42.05
2023-04-04T20:06:38.674Z,42.12
2023-04-04T20:09:14.450Z,42.12
2023-04-04T20:11:41.081Z,42.66
2023-04-04T20:14:09.706Z,42.93
2023-04-04T20:16:37.182Z,43.30
2023-04-04T20:19:06.668Z,43.27
2023-04-04T20:21:35.491Z,43.72
2023-04-04T20:24:07.973Z,44.06
2023-04-04T20:26:45.825Z,44.69
2023-04-04T20:29:18.034Z,44.90
2023-04-04T20:31:55.023Z,44.92
2023-04-04T20:34:49.172Z,44.71
2023-04-04T20:37:25.953Z,44.28
2023-04-04T20:39:59.907Z,43.77
2023-04-04T20:42:29.180Z,44.12
2023-04-04T20:45:11.637Z,44.28
2023-04-04T20:47:54.316Z,44.52
2023-04-04T20:50:44.791Z,45.33
2023-04-04T20:53:19.517Z,44.78
2023-04-04T20:55:46.225Z,44.54
2023-04-04T20:58:33.009Z,45.39
2023-04-04T21:01:01.350Z,45.33
2023-04-04T21:03:36.443Z,45.26
2023-04-04T21:06:15.918Z,45.23
2023-04-04T21:08:51.290Z,45.45
2023-04-04T21:11:28.763Z,46.00
2023-04-04T21:13:56.543Z,46.15
2023-04-04T21:16:27.479Z,46.17
2023-04-04T21:18:59.183Z,46.18
2023-04-04T21:21:26.453Z,46.29
2023-04-04T21:23:57.254Z,46.68
2023-04-04T21:26:40.847Z,47.16
2023-04-04T21:29:21.187Z,47.38
2023-04-04T21:31:49.199Z,46.83
2023-04-04T21:34:19.910Z,47.05
2023-04-04T21:36:49.176Z,47.33
2023-04-04T21:39:25.497Z,48.48
2023-04-04T21:41:58.331Z,48.06
2023-04-04T21:44:26.185Z,48.04
2023-04-04T21:46:55.093Z,47.87
2023-04-04T21:49:22.196Z,48.08
2023-04-04T21:51:49.156Z,48.52
2023-04-04T21:54:15.888Z,48.88
2023-04-04T21:56:42.751Z,48.64
2023-04-04T21:59:10.252Z,49.48
2023-04-04T22:01:38.344Z,49.33
2023-04-04T22:04:05.187Z,48.54
2023-04-04T22:06:31.781Z,48.46
2023-04-04T22:09:00.298Z,48.47
2023-04-04T22:11:27.694Z,48.20
2023-04-04T22:14:04.132Z,48.11
2023-04-04T22:16:31.336Z,48.58
2023-04-04T22:19:00.891Z,48.88
2023-04-04T22:21:27.833Z,48.72
2023-04-04T22:24:05.813Z,48.93
2023-04-04T22:26:33.308Z,48.82
2023-04-04T22:29:03.584Z,48.88
2023-04-04T22:31:33.841Z,48.97
2023-04-04T22:34:00.708Z,49.26
2023-04-04T22:36:27.187Z,49.84
2023-04-04T22:38:56.907Z,49.85
2023-04-04T22:41:27.432Z,49.89
2023-04-04T22:43:54.148Z,49.97
2023-04-04T22:46:20.738Z,50.34
2023-04-04T22:48:47.374Z,50.03
2023-04-04T22:51:15.189Z,50.23
2023-04-04T22:53:44.099Z,50.01
2023-04-04T22:56:11.151Z,50.11
2023-04-04T22:58:37.898Z,49.77
2023-04-04T23:01:04.945Z,50.42
2023-04-04T23:03:31.721Z,50.78
2023-04-04T23:05:58.204Z,51.02
2023-04-04T23:08:24.756Z,50.86
2023-04-04T23:10:51.232Z,50.76
2023-04-04T23:13:17.675Z,51.50
2023-04-04T23:15:45.099Z,51.79
2023-04-04T23:18:12.368Z,51.78
2023-04-04T23:20:39.449Z,51.76
2023-04-04T23:23:06.212Z,52.24
2023-04-04T23:25:32.712Z,52.01
2023-04-04T23:27:59.249Z,51.89
2023-04-04T23:30:25.998Z,52.31
2023-04-04T23:32:52.653Z,52.04
2023-04-04T23:35:19.156Z,52.12
2023-04-04T23:37:46.171Z,52.13
2023-04-04T23:40:12.958Z,51.87
2023-04-04T23:42:39.411Z,51.72
2023-04-04T23:45:07.041Z,52.14
2023-04-04T23:47:34.062Z,52.02
2023-04-04T23:50:00.906Z,52.03
2023-04-04T23:52:27.460Z,51.59
2023-04-04T23:54:53.988Z,51.28
2023-04-04T23:57:20.608Z,51.49
2023-04-04T23:59:47.071Z,51.78
